Time;durP1;ratioP1;P1;durP2;ratioP2;P2;SDS_P1;SDS_P2;PMS_P1;PMS_P2;Temp;Humidity;BMP_temperature;BMP_pressure;BME280_temperature;BME280_humidity;BME280_pressure;Samples;Min_cycle;Max_cycle;Signal;HPM_P1;HPM_P2
2022/05/30 00:00:44;;;;;;;0.47;0.47;;;22.30;42.40;;;-147.20;100.00;58430.41;5092453;28;20059;-18
2022/05/30 00:03:10;;;;;;;0.50;0.50;;;22.30;42.40;;;-147.20;100.00;58430.41;5092713;28;20070;-18
2022/05/30 00:05:36;;;;;;;0.47;0.47;;;22.30;42.40;;;-147.20;100.00;58430.41;5092918;28;20040;-18
2022/05/30 00:08:02;;;;;;;0.50;0.50;;;22.30;42.40;;;-147.20;100.00;58430.41;5092409;28;20886;-18
2022/05/30 00:10:29;;;;;;;0.50;0.50;;;22.30;42.40;;;-147.20;100.00;58430.41;5092418;28;20075;-18
2022/05/30 00:12:55;;;;;;;0.50;0.50;;;22.30;42.40;;;-147.20;100.00;58430.41;5092770;28;20051;-18
2022/05/30 00:15:22;;;;;;;0.77;0.50;;;22.30;42.40;;;-147.20;100.00;58430.41;5092523;28;20399;-18
2022/05/30 00:17:54;;;;;;;0.60;0.60;;;22.30;42.40;;;-147.20;100.00;58430.41;5092341;28;20472;-18
2022/05/30 00:20:20;;;;;;;0.50;0.50;;;22.30;42.40;;;-147.20;100.00;58430.41;5092217;28;20430;-18
2022/05/30 00:22:47;;;;;;;0.70;0.68;;;22.30;42.40;;;-147.20;100.00;58430.41;5092660;28;20044;-18
2022/05/30 00:25:13;;;;;;;0.40;0.40;;;22.30;42.40;;;-147.20;100.00;58430.41;5092615;28;20048;-18
2022/05/30 00:27:39;;;;;;;0.75;0.50;;;22.30;42.40;;;-147.20;100.00;58430.41;5092344;28;20063;-18
2022/05/30 00:30:06;;;;;;;0.70;0.70;;;22.30;42.40;;;-147.20;100.00;58430.41;5092189;28;20116;-18
2022/05/30 00:32:35;;;;;;;0.43;0.40;;;22.30;42.40;;;-147.20;100.00;58430.41;5073918;28;20040;-18
2022/05/30 00:35:03;;;;;;;0.60;0.50;;;22.30;42.40;;;-147.20;100.00;58430.41;5092228;28;20114;-18
2022/05/30 00:37:28;;;;;;;0.47;0.47;;;22.30;42.40;;;-147.20;100.00;58430.41;5092248;28;20504;-19
2022/05/30 00:39:54;;;;;;;0.50;0.50;;;22.30;42.40;;;-147.20;100.00;58430.41;5073700;28;20046;-18
2022/05/30 00:42:24;;;;;;;0.60;0.60;;;22.30;42.40;;;-147.20;100.00;58430.41;5092208;28;20048;-18
2022/05/30 00:44:50;;;;;;;0.75;0.52;;;22.30;42.40;;;-147.20;100.00;58430.41;5092100;28;20411;-18
2022/05/30 00:47:19;;;;;;;0.50;0.50;;;22.30;42.40;;;-147.20;100.00;58430.41;5092062;28;20496;-18
2022/05/30 00:49:47;;;;;;;0.60;0.60;;;22.20;42.40;;;-147.20;100.00;58430.41;5073707;28;20044;-18
2022/05/30 00:52:26;;;;;;;0.52;0.50;;;22.20;42.40;;;-147.20;100.00;58430.41;5092093;28;20055;-18
2022/05/30 00:55:11;;;;;;;0.50;0.50;;;22.30;42.40;;;-147.20;100.00;58430.41;5073796;28;20048;-18
2022/05/30 00:57:38;;;;;;;0.50;0.50;;;22.20;42.40;;;-147.20;100.00;58430.41;5076349;28;20045;-18
2022/05/30 01:00:28;;;;;;;0.52;0.45;;;22.20;42.40;;;-147.20;100.00;58430.41;5061081;28;20173;-18
2022/05/30 01:08:30;;;;;;;0.50;0.50;;;22.20;42.40;;;-147.20;100.00;58430.41;5076505;28;20052;-18
2022/05/30 01:10:56;;;;;;;0.50;0.45;;;22.20;42.40;;;-147.20;100.00;58430.41;5076590;28;20056;-18
2022/05/30 01:13:27;;;;;;;0.40;0.40;;;22.20;42.40;;;-147.20;100.00;58430.41;5095213;28;20454;-18
2022/05/30 01:15:54;;;;;;;0.57;0.57;;;22.20;42.40;;;-147.20;100.00;58430.41;5095550;28;20044;-18
2022/05/30 01:18:39;;;;;;;0.50;0.50;;;22.20;42.40;;;-147.20;100.00;58430.41;5075304;28;20287;-18
2022/05/30 01:21:23;;;;;;;0.50;0.50;;;22.20;42.40;;;-147.20;100.00;58430.41;5075383;28;20051;-19
2022/05/30 01:24:15;;;;;;;0.57;0.55;;;22.20;42.40;;;-147.20;100.00;58430.41;5076827;28;20052;-19
2022/05/30 01:27:46;;;;;;;0.40;0.40;;;22.20;42.40;;;-147.20;100.00;58430.41;5060335;28;20028;-18
2022/05/30 01:30:14;;;;;;;0.50;0.50;;;22.20;42.40;;;-147.20;100.00;58430.41;5076906;28;20052;-18
2022/05/30 01:32:42;;;;;;;0.50;0.50;;;22.20;42.40;;;-147.20;100.00;58430.41;5075739;28;20091;-18
2022/05/30 01:35:09;;;;;;;0.55;0.52;;;22.20;42.40;;;-147.20;100.00;58430.41;5094984;28;20052;-18
2022/05/30 01:37:38;;;;;;;0.60;0.60;;;22.20;42.40;;;-147.20;100.00;58430.41;5077232;28;20048;-18
2022/05/30 01:40:05;;;;;;;0.50;0.50;;;22.20;42.40;;;-147.20;100.00;58430.41;5074438;28;20049;-18
2022/05/30 01:42:33;;;;;;;0.50;0.50;;;22.20;42.40;;;-147.20;100.00;58430.41;5077033;28;20455;-19
2022/05/30 01:44:59;;;;;;;0.60;0.60;;;22.20;42.40;;;-147.20;100.00;58430.41;5076363;28;20045;-18
2022/05/30 01:47:25;;;;;;;0.40;0.40;;;22.20;42.40;;;-147.20;100.00;58430.41;5093969;28;20469;-19
2022/05/30 01:49:51;;;;;;;0.40;0.40;;;22.20;42.40;;;-147.20;100.00;58430.41;5075101;28;20084;-18
2022/05/30 01:52:21;;;;;;;0.57;0.50;;;22.20;42.40;;;-147.20;100.00;58430.41;5093260;28;20059;-18
2022/05/30 01:54:46;;;;;;;0.50;0.50;;;22.20;42.40;;;-147.20;100.00;58430.41;5076396;28;20052;-19
2022/05/30 01:57:41;;;;;;;0.50;0.50;;;22.20;42.40;;;-147.20;100.00;58430.41;5093640;28;20059;-19
2022/05/30 02:00:25;;;;;;;0.50;0.50;;;22.20;42.40;;;-147.20;100.00;58430.41;5094584;28;20089;-18
2022/05/30 02:02:51;;;;;;;0.40;0.40;;;22.20;42.50;;;-147.20;100.00;58430.41;5076217;28;20044;-18
2022/05/30 02:05:18;;;;;;;0.50;0.50;;;22.20;42.40;;;-147.20;100.00;58430.41;5075892;28;20089;-19
2022/05/30 02:07:44;;;;;;;0.60;0.60;;;22.20;42.40;;;-147.20;100.00;58430.41;5075673;28;20051;-18
2022/05/30 02:10:14;;;;;;;0.40;0.40;;;22.20;42.40;;;-147.20;100.00;58430.41;5077260;28;20144;-18
2022/05/30 02:12:40;;;;;;;0.50;0.50;;;22.20;42.40;;;-147.20;100.00;58430.41;5092911;28;20052;-18
2022/05/30 02:15:23;;;;;;;0.40;0.40;;;22.20;42.40;;;-147.20;100.00;58430.41;5093312;28;20048;-18
2022/05/30 02:17:54;;;;;;;0.40;0.40;;;22.20;42.40;;;-147.20;100.00;58430.41;5076497;28;20071;-19
2022/05/30 02:20:21;;;;;;;0.50;0.50;;;22.20;42.40;;;-147.20;100.00;58430.41;5092930;28;20431;-18
2022/05/30 02:22:46;;;;;;;0.50;0.50;;;22.20;42.40;;;-147.20;100.00;58430.41;5075006;28;20052;-19
2022/05/30 02:25:13;;;;;;;0.60;0.60;;;22.20;42.40;;;-147.20;100.00;58430.41;5094200;28;20388;-19
2022/05/30 02:27:41;;;;;;;0.43;0.40;;;22.20;42.40;;;-147.20;100.00;58430.41;5094366;28;20044;-18
2022/05/30 02:30:09;;;;;;;0.45;0.45;;;22.20;42.50;;;-147.20;100.00;58430.41;5076136;28;20478;-18
2022/05/30 02:32:35;;;;;;;0.52;0.52;;;22.20;43.00;;;-147.20;100.00;58430.41;5094010;28;20522;-19
2022/05/30 02:37:47;;;;;;;0.60;0.50;;;22.20;42.40;;;-147.20;100.00;58430.41;5075927;28;20078;-18
2022/05/30 02:40:32;;;;;;;0.55;0.47;;;22.20;42.40;;;-147.20;100.00;58430.41;5093884;28;20051;-19
2022/05/30 02:43:21;;;;;;;0.65;0.65;;;22.20;42.50;;;-147.20;100.00;58430.41;5087947;28;20056;-19
2022/05/30 02:45:47;;;;;;;0.50;0.50;;;22.20;42.50;;;-147.20;100.00;58430.41;5074909;28;20047;-18
2022/05/30 02:48:13;;;;;;;0.40;0.40;;;22.20;42.50;;;-147.20;100.00;58430.41;5073400;28;20048;-18
2022/05/30 02:50:39;;;;;;;0.40;0.40;;;22.20;42.40;;;-147.20;100.00;58430.41;5092587;28;20101;-19
2022/05/30 02:53:05;;;;;;;0.50;0.50;;;22.20;42.50;;;-147.20;100.00;58430.41;5075684;28;20044;-19
2022/05/30 02:55:49;;;;;;;0.50;0.50;;;22.10;42.40;;;-147.20;100.00;58430.41;5093710;28;20055;-18
2022/05/30 02:58:15;;;;;;;0.45;0.45;;;22.20;42.50;;;-147.20;100.00;58430.41;5075629;28;20044;-19
2022/05/30 03:00:41;;;;;;;0.60;0.57;;;22.10;42.40;;;-147.20;100.00;58430.41;5092070;28;20048;-18
2022/05/30 03:03:08;;;;;;;0.85;0.55;;;22.10;42.40;;;-147.20;100.00;58430.41;5075327;28;20083;-18
2022/05/30 03:05:37;;;;;;;0.60;0.55;;;22.10;42.40;;;-147.20;100.00;58430.41;5092373;28;20046;-19
2022/05/30 03:08:09;;;;;;;0.47;0.47;;;22.10;42.40;;;-147.20;100.00;58430.41;5075222;28;20055;-18
2022/05/30 03:10:53;;;;;;;0.50;0.50;;;22.10;42.40;;;-147.20;100.00;58430.41;5093314;28;20051;-19
2022/05/30 03:13:19;;;;;;;0.50;0.50;;;22.10;42.40;;;-147.20;100.00;58430.41;5093440;28;20487;-18
2022/05/30 03:15:44;;;;;;;0.52;0.45;;;22.10;42.40;;;-147.20;100.00;58430.41;5093265;28;20066;-18
2022/05/30 03:18:11;;;;;;;0.80;0.60;;;22.10;42.40;;;-147.20;100.00;58430.41;5093435;28;20376;-19
2022/05/30 03:20:37;;;;;;;0.50;0.50;;;22.10;42.40;;;-147.20;100.00;58430.41;5074893;28;20167;-18
2022/05/30 03:23:05;;;;;;;0.93;0.50;;;22.10;42.40;;;-147.20;100.00;58430.41;5075091;28;20050;-18
2022/05/30 03:25:34;;;;;;;0.77;0.50;;;22.20;42.50;;;-147.20;100.00;58430.41;5093519;28;20056;-18
2022/05/30 03:28:02;;;;;;;0.73;0.57;;;22.10;42.40;;;-147.20;100.00;58430.41;5058528;28;20048;-18
2022/05/30 03:30:28;;;;;;;0.60;0.60;;;22.10;42.50;;;-147.20;100.00;58430.41;5074324;28;20056;-18
2022/05/30 03:32:54;;;;;;;0.63;0.60;;;22.20;42.50;;;-147.20;100.00;58430.41;5093060;28;20059;-18
2022/05/30 03:35:20;;;;;;;0.63;0.50;;;22.10;42.40;;;-147.20;100.00;58430.41;5075146;28;20039;-18
2022/05/30 03:37:53;;;;;;;0.50;0.50;;;22.10;42.40;;;-147.20;100.00;58430.41;5075084;28;20048;-17
2022/05/30 03:40:38;;;;;;;0.50;0.50;;;22.10;42.40;;;-147.20;100.00;58430.41;5090602;28;20101;-18
2022/05/30 03:43:25;;;;;;;0.50;0.50;;;22.10;42.50;;;-147.20;100.00;58430.41;5092815;28;20091;-19
2022/05/30 03:45:51;;;;;;;0.50;0.50;;;22.10;42.40;;;-147.20;100.00;58430.41;5075274;28;20088;-18
2022/05/30 03:48:20;;;;;;;0.52;0.50;;;22.10;42.40;;;-147.20;100.00;58430.41;5091321;28;20040;-19
2022/05/30 03:50:48;;;;;;;0.50;0.50;;;22.10;42.40;;;-147.20;100.00;58430.41;5091404;28;20047;-18
2022/05/30 03:53:14;;;;;;;0.40;0.40;;;22.10;42.40;;;-147.20;100.00;58430.41;5074585;28;20048;-18
2022/05/30 03:55:44;;;;;;;0.52;0.50;;;22.10;42.40;;;-147.20;100.00;58430.41;5074780;28;20039;-18
2022/05/30 03:58:13;;;;;;;0.40;0.40;;;22.10;42.40;;;-147.20;100.00;58430.41;5057281;28;20040;-18
2022/05/30 04:00:42;;;;;;;0.45;0.45;;;22.10;42.40;;;-147.20;100.00;58430.41;5073027;28;20048;-18
2022/05/30 04:03:08;;;;;;;0.50;0.50;;;22.10;42.40;;;-147.20;100.00;58430.41;5074797;28;20051;-18
2022/05/30 04:05:34;;;;;;;0.50;0.50;;;22.10;42.40;;;-147.20;100.00;58430.41;5074390;28;20072;-18
2022/05/30 04:08:00;;;;;;;0.80;0.63;;;22.10;42.40;;;-147.20;100.00;58430.41;5073637;28;21010;-18
2022/05/30 04:10:52;;;;;;;0.68;0.57;;;22.10;42.40;;;-147.20;100.00;58430.41;5092371;28;20441;-18
2022/05/30 04:13:43;;;;;;;0.57;0.57;;;22.10;42.40;;;-147.20;100.00;58430.41;5076721;28;20052;-18
2022/05/30 04:16:33;;;;;;;0.52;0.52;;;22.10;42.40;;;-147.20;100.00;58430.41;5083617;28;20138;-18
2022/05/30 04:19:03;;;;;;;0.40;0.40;;;22.10;42.40;;;-147.20;100.00;58430.41;5073994;28;20511;-19
2022/05/30 04:21:29;;;;;;;0.45;0.45;;;22.20;42.40;;;-147.20;100.00;58430.41;5091571;28;20044;-18
2022/05/30 04:23:54;;;;;;;0.52;0.52;;;22.20;42.40;;;-147.20;100.00;58430.41;5074214;28;20464;-19
2022/05/30 04:26:23;;;;;;;0.40;0.40;;;22.20;42.40;;;-147.20;100.00;58430.41;5074179;28;20510;-18
2022/05/30 04:28:51;;;;;;;0.90;0.60;;;22.10;42.30;;;-147.20;100.00;58430.41;5084506;28;20067;-18
2022/05/30 04:31:42;;;;;;;1.20;0.63;;;22.20;42.30;;;-147.20;100.00;58430.41;5076616;28;20032;-18
2022/05/30 04:34:10;;;;;;;0.88;0.40;;;22.20;42.30;;;-147.20;100.00;58430.41;5077620;28;20051;-18
2022/05/30 04:36:36;;;;;;;0.40;0.40;;;22.20;42.30;;;-147.20;100.00;58430.41;5077493;28;20484;-18
2022/05/30 04:39:02;;;;;;;0.60;0.50;;;22.20;42.30;;;-147.20;100.00;58430.41;5077450;28;20048;-18
2022/05/30 04:41:47;;;;;;;0.70;0.50;;;22.20;42.30;;;-147.20;100.00;58430.41;5095793;28;20140;-19
2022/05/30 04:44:40;;;;;;;0.90;0.70;;;22.20;42.30;;;-147.20;100.00;58430.41;5093375;28;20052;-18
2022/05/30 04:47:27;;;;;;;0.57;0.50;;;22.20;42.30;;;-147.20;100.00;58430.41;5094501;28;20044;-18
2022/05/30 04:49:53;;;;;;;0.70;0.70;;;22.20;42.30;;;-147.20;100.00;58430.41;5077366;28;20106;-18
2022/05/30 04:52:20;;;;;;;0.50;0.50;;;22.20;42.30;;;-147.20;100.00;58430.41;5095763;28;20419;-18
2022/05/30 04:54:46;;;;;;;0.52;0.52;;;22.20;42.30;;;-147.20;100.00;58430.41;5094705;28;20422;-18
2022/05/30 04:57:12;;;;;;;0.50;0.45;;;22.20;42.30;;;-147.20;100.00;58430.41;5095452;28;20093;-19
2022/05/30 04:59:52;;;;;;;0.80;0.60;;;22.20;42.30;;;-147.20;100.00;58430.41;5077221;28;20507;-18
2022/05/30 05:02:18;;;;;;;0.45;0.45;;;22.20;42.30;;;-147.20;100.00;58430.41;5077661;28;20049;-19
2022/05/30 05:04:44;;;;;;;0.43;0.43;;;22.20;42.30;;;-147.20;100.00;58430.41;5094058;28;20081;-18
2022/05/30 05:07:10;;;;;;;0.75;0.50;;;22.20;42.30;;;-147.20;100.00;58430.41;5093626;28;20506;-18
2022/05/30 05:09:56;;;;;;;0.75;0.70;;;22.20;42.20;;;-147.20;100.00;58430.41;5094223;28;20064;-18
2022/05/30 05:12:44;;;;;;;0.50;0.45;;;22.20;42.20;;;-147.20;100.00;58430.41;5095042;28;20055;-19
2022/05/30 05:15:33;;;;;;;0.55;0.55;;;22.20;42.20;;;-147.20;100.00;58430.41;5094963;28;20079;-18
2022/05/30 05:18:26;;;;;;;0.60;0.60;;;22.20;42.20;;;-147.20;100.00;58430.41;5091931;28;20492;-18
2022/05/30 05:20:51;;;;;;;0.50;0.50;;;22.20;42.10;;;-147.20;100.00;58430.41;5093631;28;20054;-18
2022/05/30 05:23:17;;;;;;;0.43;0.43;;;22.30;42.10;;;-147.20;100.00;58430.41;5076864;28;20040;-18
2022/05/30 05:25:52;;;;;;;0.95;0.40;;;22.30;42.10;;;-147.20;100.00;58430.41;5076115;28;20044;-18
2022/05/30 05:28:32;;;;;;;0.70;0.60;;;22.30;42.10;;;-147.20;100.00;58430.41;5073832;28;20049;-19
2022/05/30 05:30:57;;;;;;;0.50;0.50;;;22.30;42.00;;;-147.20;100.00;58430.41;5076690;28;20043;-18
2022/05/30 05:33:23;;;;;;;0.70;0.55;;;22.30;42.00;;;-147.20;100.00;58430.41;5060547;28;20064;-18
2022/05/30 05:35:49;;;;;;;0.52;0.50;;;22.30;42.00;;;-147.20;100.00;58430.41;5094955;28;20087;-18
2022/05/30 05:38:15;;;;;;;0.55;0.55;;;22.30;41.90;;;-147.20;100.00;58430.41;5076638;28;20097;-18
2022/05/30 05:41:01;;;;;;;0.43;0.43;;;22.30;41.90;;;-147.20;100.00;58430.41;5077044;28;20031;-18
2022/05/30 05:43:39;;;;;;;0.60;0.50;;;22.30;41.90;;;-147.20;100.00;58430.41;5075511;28;20055;-19
2022/05/30 05:46:05;;;;;;;0.60;0.60;;;22.30;41.90;;;-147.20;100.00;58430.41;5076779;28;20044;-18
2022/05/30 05:48:31;;;;;;;0.50;0.50;;;22.30;42.00;;;-147.20;100.00;58430.41;5094871;28;20531;-18
2022/05/30 05:50:56;;;;;;;0.50;0.50;;;22.30;42.00;;;-147.20;100.00;58430.41;5094526;28;20056;-18
2022/05/30 05:53:22;;;;;;;0.60;0.60;;;22.30;42.00;;;-147.20;100.00;58430.41;5093042;28;20048;-18
2022/05/30 05:55:48;;;;;;;0.43;0.43;;;22.30;42.00;;;-147.20;100.00;58430.41;5076768;28;20049;-19
2022/05/30 05:58:14;;;;;;;0.60;0.60;;;22.20;42.00;;;-147.20;100.00;58430.41;5092976;28;20441;-18
2022/05/30 06:00:42;;;;;;;1.25;0.70;;;22.30;42.00;;;-147.20;100.00;58430.41;5076687;28;20048;-18
2022/05/30 06:03:08;;;;;;;0.50;0.50;;;22.30;42.00;;;-147.20;100.00;58430.41;5092983;28;20535;-19
2022/05/30 06:05:54;;;;;;;0.90;0.70;;;22.30;42.10;;;-147.20;100.00;58430.41;5094071;28;20499;-19
2022/05/30 06:08:40;;;;;;;0.52;0.52;;;22.30;42.10;;;-147.20;100.00;58430.41;5093392;28;20063;-19
2022/05/30 06:11:35;;;;;;;0.52;0.50;;;22.30;42.10;;;-147.20;100.00;58430.41;5076063;28;20094;-19
2022/05/30 06:14:03;;;;;;;0.60;0.50;;;22.30;42.10;;;-147.20;100.00;58430.41;5076230;28;20109;-18
2022/05/30 06:16:33;;;;;;;0.50;0.50;;;22.30;42.10;;;-147.20;100.00;58430.41;5075895;28;20407;-20
2022/05/30 06:19:02;;;;;;;0.50;0.50;;;22.20;42.00;;;-147.20;100.00;58430.41;5094049;28;20058;-20
2022/05/30 06:21:31;;;;;;;1.10;0.43;;;22.30;42.00;;;-147.20;100.00;58430.41;5092529;28;20040;-19
2022/05/30 06:23:59;;;;;;;0.77;0.60;;;22.30;42.00;;;-147.20;100.00;58430.41;5092448;28;20044;-19
2022/05/30 06:26:44;;;;;;;0.85;0.60;;;22.30;41.90;;;-147.20;100.00;58430.41;5093484;28;20058;-19
2022/05/30 06:29:19;;;;;;;0.65;0.50;;;22.30;41.90;;;-147.20;100.00;58430.41;5075358;28;20044;-19
2022/05/30 06:31:45;;;;;;;0.43;0.43;;;22.30;41.90;;;-147.20;100.00;58430.41;5094012;28;21379;-19
2022/05/30 06:34:11;;;;;;;0.77;0.60;;;22.30;41.90;;;-147.20;100.00;58430.41;5093653;28;20436;-19
2022/05/30 06:36:41;;;;;;;0.85;0.77;;;22.30;41.90;;;-147.20;100.00;58430.41;5074379;28;20076;-19
2022/05/30 06:39:08;;;;;;;0.60;0.57;;;22.30;41.90;;;-147.20;100.00;58430.41;5075042;28;20374;-19
2022/05/30 06:41:41;;;;;;;0.50;0.50;;;22.30;41.90;;;-147.20;100.00;58430.41;5072642;28;20048;-19
2022/05/30 06:44:09;;;;;;;0.70;0.60;;;22.30;41.90;;;-147.20;100.00;58430.41;5075405;28;20055;-19
2022/05/30 06:46:53;;;;;;;1.38;0.55;;;22.30;41.90;;;-147.20;100.00;58430.41;5094066;28;20134;-19
2022/05/30 06:49:39;;;;;;;0.57;0.57;;;22.30;41.80;;;-147.20;100.00;58430.41;5089928;28;20054;-18
2022/05/30 06:52:08;;;;;;;0.70;0.60;;;22.30;41.80;;;-147.20;100.00;58430.41;5074892;28;20040;-19
2022/05/30 06:54:35;;;;;;;0.80;0.50;;;22.30;41.90;;;-147.20;100.00;58430.41;5074784;28;20380;-19
2022/05/30 06:59:49;;;;;;;0.68;0.50;;;22.30;41.80;;;-147.20;100.00;58430.41;5074887;28;20128;-19
2022/05/30 07:02:15;;;;;;;3.33;0.80;;;22.40;41.90;;;-147.20;100.00;58430.41;5093185;28;20052;-19
2022/05/30 07:05:00;;;;;;;0.50;0.50;;;22.30;41.80;;;-147.20;100.00;58430.41;5093196;28;20105;-19
2022/05/30 07:07:56;;;;;;;0.55;0.40;;;22.40;41.80;;;-147.20;100.00;58430.41;5092831;28;20048;-19
2022/05/30 07:10:35;;;;;;;0.43;0.43;;;22.40;41.80;;;-147.20;100.00;58430.41;5075349;28;20047;-19
2022/05/30 07:13:13;;;;;;;1.33;0.77;;;22.40;41.80;;;-147.20;100.00;58430.41;5073623;28;20044;-19
2022/05/30 07:15:39;;;;;;;0.65;0.65;;;22.40;41.70;;;-147.20;100.00;58430.41;5074470;28;20052;-18
2022/05/30 07:18:12;;;;;;;0.80;0.68;;;22.40;41.70;;;-147.20;100.00;58430.41;5074564;28;20052;-19
2022/05/30 07:20:40;;;;;;;0.60;0.60;;;22.40;41.60;;;-147.20;100.00;58430.41;5074625;28;20413;-19
2022/05/30 07:23:25;;;;;;;0.40;0.40;;;22.40;41.60;;;-147.20;100.00;58430.41;5092702;28;20133;-19
2022/05/30 07:26:15;;;;;;;0.57;0.50;;;22.50;41.60;;;-147.20;100.00;58430.41;5093080;28;20058;-19
2022/05/30 07:28:59;;;;;;;0.82;0.50;;;22.50;41.50;;;-147.20;100.00;58430.41;5092942;28;20151;-18
2022/05/30 07:31:44;;;;;;;1.15;0.60;;;22.60;41.50;;;-147.20;100.00;58430.41;5093353;28;20055;-19
2022/05/30 07:34:29;;;;;;;0.50;0.50;;;22.60;41.30;;;-147.20;100.00;58430.41;5092962;28;20058;-19
2022/05/30 07:37:14;;;;;;;0.98;0.73;;;22.60;41.30;;;-147.20;100.00;58430.41;5089369;28;20046;-19
2022/05/30 07:40:01;;;;;;;1.55;0.60;;;22.60;41.30;;;-147.20;100.00;58430.41;5091917;28;20048;-19
2022/05/30 07:42:48;;;;;;;0.65;0.60;;;22.60;41.30;;;-147.20;100.00;58430.41;5074925;28;20432;-19
2022/05/30 07:45:31;;;;;;;0.50;0.50;;;22.70;41.20;;;-147.20;100.00;58430.41;5092697;28;20097;-19
2022/05/30 07:48:05;;;;;;;1.08;0.70;;;22.70;41.30;;;-147.20;100.00;58430.41;5091364;28;20039;-19
2022/05/30 07:50:56;;;;;;;1.20;0.60;;;22.60;41.30;;;-147.20;100.00;58430.41;5077411;28;20146;-19
2022/05/30 07:53:35;;;;;;;0.65;0.63;;;22.60;41.30;;;-147.20;100.00;58430.41;5092956;28;20105;-19
2022/05/30 07:56:12;;;;;;;1.23;0.68;;;22.60;41.30;;;-147.20;100.00;58430.41;5074805;28;20059;-19
2022/05/30 07:58:38;;;;;;;0.70;0.60;;;22.60;41.30;;;-147.20;100.00;58430.41;5073716;28;20052;-19
2022/05/30 08:01:06;;;;;;;0.70;0.55;;;22.60;41.40;;;-147.20;100.00;58430.41;5072460;28;20425;-19
2022/05/30 08:03:35;;;;;;;0.82;0.70;;;22.60;41.40;;;-147.20;100.00;58430.41;5054818;28;20133;-19
2022/05/30 08:06:23;;;;;;;1.10;0.70;;;22.60;41.50;;;-147.20;100.00;58430.41;5078518;28;20067;-19
2022/05/30 08:09:08;;;;;;;0.55;0.50;;;22.50;41.50;;;-147.20;100.00;58430.41;5099095;28;20518;-19
2022/05/30 08:11:42;;;;;;;0.57;0.50;;;22.50;41.50;;;-147.20;100.00;58430.41;5082088;28;20056;-19
2022/05/30 08:14:19;;;;;;;0.90;0.60;;;22.50;41.60;;;-147.20;100.00;58430.41;5080753;28;20046;-20
2022/05/30 08:16:45;;;;;;;0.50;0.40;;;22.40;41.60;;;-147.20;100.00;58430.41;5080094;28;20056;-19
2022/05/30 08:19:11;;;;;;;0.60;0.60;;;22.40;41.60;;;-147.20;100.00;58430.41;5097435;28;20044;-19
2022/05/30 08:21:37;;;;;;;0.77;0.63;;;22.40;41.70;;;-147.20;100.00;58430.41;5080918;28;20041;-18
2022/05/30 08:24:04;;;;;;;0.75;0.60;;;22.40;41.70;;;-147.20;100.00;58430.41;5097595;28;20048;-19
2022/05/30 08:26:30;;;;;;;0.68;0.57;;;22.40;41.70;;;-147.20;100.00;58430.41;5078850;28;20044;-19
2022/05/30 08:29:19;;;;;;;1.13;0.80;;;22.40;41.70;;;-147.20;100.00;58430.41;5098162;28;20083;-19
2022/05/30 08:31:45;;;;;;;2.20;0.75;;;22.40;41.70;;;-147.20;100.00;58430.41;5062695;28;20053;-19
2022/05/30 08:34:39;;;;;;;1.02;0.70;;;22.40;41.70;;;-147.20;100.00;58430.41;5098523;28;20047;-19
2022/05/30 08:37:07;;;;;;;1.52;0.85;;;22.40;41.70;;;-147.20;100.00;58430.41;5080725;28;20040;-19
2022/05/30 08:42:28;;;;;;;0.85;0.60;;;22.40;41.70;;;-147.20;100.00;58430.41;5080882;28;20135;-20
2022/05/30 08:45:21;;;;;;;1.65;0.80;;;22.40;41.70;;;-147.20;100.00;58430.41;5080341;28;20039;-20
2022/05/30 08:48:17;;;;;;;1.20;0.98;;;22.40;41.70;;;-147.20;100.00;58430.41;5083034;28;20587;-20
2022/05/30 08:51:15;;;;;;;1.20;0.77;;;22.40;41.60;;;-147.20;100.00;58430.41;5062839;28;20040;-20
2022/05/30 08:54:22;;;;;;;1.13;0.70;;;22.40;41.60;;;-147.20;100.00;58430.41;5080603;28;20693;-19
2022/05/30 08:57:51;;;;;;;1.23;0.88;;;22.40;41.60;;;-147.20;100.00;58430.41;5079032;28;20101;-19
2022/05/30 09:00:35;;;;;;;0.70;0.60;;;22.50;41.60;;;-147.20;100.00;58430.41;5079959;28;20139;-20
2022/05/30 09:04:16;;;;;;;0.85;0.63;;;22.50;41.50;;;-147.20;100.00;58430.41;5098769;28;20443;-19
2022/05/30 09:07:04;;;;;;;1.05;0.70;;;22.50;41.50;;;-147.20;100.00;58430.41;5065236;28;20473;-20
2022/05/30 09:09:53;;;;;;;0.50;0.50;;;22.50;41.50;;;-147.20;100.00;58430.41;5079979;28;20048;-19
2022/05/30 09:12:51;;;;;;;0.68;0.68;;;22.50;41.50;;;-147.20;100.00;58430.41;5098328;28;20096;-19
2022/05/30 09:16:03;;;;;;;1.88;0.60;;;22.50;41.50;;;-147.20;100.00;58430.41;5075798;28;20048;-19
2022/05/30 09:18:52;;;;;;;1.33;0.80;;;22.40;41.50;;;-147.20;100.00;58430.41;5058202;28;20048;-20
2022/05/30 09:21:22;;;;;;;0.82;0.55;;;22.40;41.60;;;-147.20;100.00;58430.41;5075466;28;20044;-19
2022/05/30 09:23:49;;;;;;;1.27;0.80;;;22.40;41.60;;;-147.20;100.00;58430.41;5077272;28;20072;-19
2022/05/30 09:26:23;;;;;;;1.75;0.80;;;22.40;41.60;;;-147.20;100.00;58430.41;5093620;28;20040;-19
2022/05/30 09:29:01;;;;;;;2.15;0.63;;;22.50;41.60;;;-147.20;100.00;58430.41;5076421;28;20055;-19
2022/05/30 09:32:13;;;;;;;2.13;0.75;;;22.50;41.50;;;-147.20;100.00;58430.41;5094997;28;20414;-19
2022/05/30 09:35:25;;;;;;;1.25;0.77;;;22.50;41.40;;;-147.20;100.00;58430.41;5080923;28;20048;-19
2022/05/30 09:38:22;;;;;;;2.13;0.80;;;22.60;41.40;;;-147.20;100.00;58430.41;5095049;28;20059;-19
2022/05/30 09:41:15;;;;;;;1.40;0.80;;;22.60;41.40;;;-147.20;100.00;58430.41;5094781;28;20106;-19
2022/05/30 09:44:03;;;;;;;1.08;0.75;;;22.60;41.40;;;-147.20;100.00;58430.41;5079013;28;20134;-20
2022/05/30 09:46:54;;;;;;;2.08;0.80;;;22.50;41.40;;;-147.20;100.00;58430.41;5076984;28;20310;-19
2022/05/30 09:49:45;;;;;;;2.50;0.98;;;22.50;41.50;;;-147.20;100.00;58430.41;5079200;28;20182;-19
2022/05/30 09:52:37;;;;;;;2.83;0.90;;;22.50;41.50;;;-147.20;100.00;58430.41;5075254;28;20048;-19
2022/05/30 09:55:37;;;;;;;3.03;1.02;;;22.50;41.60;;;-147.20;100.00;58430.41;5075466;28;20040;-19
2022/05/30 09:58:10;;;;;;;1.95;0.70;;;22.50;41.60;;;-147.20;100.00;58430.41;5074027;28;20044;-19
2022/05/30 10:00:56;;;;;;;1.52;0.85;;;22.40;41.60;;;-147.20;100.00;58430.41;5061635;28;20056;-19
2022/05/30 10:03:28;;;;;;;2.05;0.70;;;22.40;41.70;;;-147.20;100.00;58430.41;5074937;28;20055;-19
2022/05/30 10:06:27;;;;;;;2.80;0.80;;;22.40;41.70;;;-147.20;100.00;58430.41;5076037;28;20048;-19
2022/05/30 10:09:20;;;;;;;1.05;0.70;;;22.40;41.70;;;-147.20;100.00;58430.41;5074470;28;20056;-19
2022/05/30 10:11:55;;;;;;;0.93;0.73;;;22.40;41.70;;;-147.20;100.00;58430.41;5075250;28;20044;-20
2022/05/30 10:14:23;;;;;;;1.10;0.93;;;22.40;41.70;;;-147.20;100.00;58430.41;5072358;28;20553;-19
2022/05/30 10:17:15;;;;;;;1.70;0.80;;;22.40;41.70;;;-147.20;100.00;58430.41;5078843;28;20500;-20
2022/05/30 10:19:48;;;;;;;1.33;0.70;;;22.40;41.70;;;-147.20;100.00;58430.41;5075596;28;20055;-20
2022/05/30 10:29:44;;;;;;;1.65;0.85;;;22.40;41.70;;;-147.20;100.00;58430.41;5083018;28;20472;-19
2022/05/30 10:32:39;;;;;;;1.08;0.80;;;22.40;41.70;;;-147.20;100.00;58430.41;5075720;28;20058;-19
2022/05/30 10:35:20;;;;;;;3.80;0.82;;;22.40;41.70;;;-147.20;100.00;58430.41;5075506;28;20078;-19
2022/05/30 10:38:08;;;;;;;1.25;0.60;;;22.50;41.60;;;-147.20;100.00;58430.41;5076122;28;20431;-20
2022/05/30 10:40:56;;;;;;;2.55;0.85;;;22.50;41.60;;;-147.20;100.00;58430.41;5058653;28;20048;-19
2022/05/30 10:43:55;;;;;;;1.42;0.70;;;22.50;41.50;;;-147.20;100.00;58430.41;5058522;28;20036;-19
2022/05/30 10:47:07;;;;;;;1.20;0.80;;;22.50;41.50;;;-147.20;100.00;58430.41;5093630;28;20137;-19
2022/05/30 10:49:56;;;;;;;1.00;0.90;;;22.50;41.50;;;-147.20;100.00;58430.41;5067327;28;20059;-19
2022/05/30 10:52:37;;;;;;;0.85;0.65;;;22.50;41.40;;;-147.20;100.00;58430.41;5075682;28;20392;-19
2022/05/30 10:55:28;;;;;;;1.80;0.80;;;22.50;41.40;;;-147.20;100.00;58430.41;5073272;28;20040;-20
2022/05/30 10:58:31;;;;;;;2.38;1.00;;;22.60;41.40;;;-147.20;100.00;58430.41;5075584;28;20058;-19